Time;durP1;ratioP1;P1;durP2;ratioP2;P2;SDS_P1;SDS_P2;PMS_P1;PMS_P2;Temp;Humidity;BMP_temperature;BMP_pressure;BME280_temperature;BME280_humidity;BME280_pressure;Samples;Min_cycle;Max_cycle;Signal;HPM_P1;HPM_P2
2022/09/11 00:01:52;;;;;;;11.30;9.80;;;;;;;11.77;92.30;99989.08;84689;1329;22577;-71
2022/09/11 00:04:01;;;;;;;14.00;10.60;;;;;;;11.77;92.49;99987.84;84652;1329;22646;-71
2022/09/11 00:06:12;;;;;;;12.80;10.50;;;;;;;11.78;92.57;99983.80;84680;1330;23010;-72
2022/09/11 00:08:21;;;;;;;15.30;10.10;;;;;;;11.77;92.57;99980.86;84707;1329;22624;-71
2022/09/11 00:10:31;;;;;;;12.30;10.20;;;;;;;11.76;92.40;99981.08;84723;1328;22659;-75
2022/09/11 00:12:40;;;;;;;12.70;10.70;;;;;;;11.77;92.76;99979.30;84702;1330;25399;-75
2022/09/11 00:14:50;;;;;;;12.90;9.90;;;;;;;11.78;92.66;99977.69;84590;1330;22591;-74
2022/09/11 00:16:59;;;;;;;12.10;10.10;;;;;;;11.79;92.78;99979.16;84515;1334;22614;-75
2022/09/11 00:19:10;;;;;;;13.40;10.30;;;;;;;11.79;92.56;99979.16;84694;1330;22718;-75
2022/09/11 00:21:19;;;;;;;10.20;9.10;;;;;;;11.79;92.52;99976.38;84672;1329;24255;-75
2022/09/11 00:23:29;;;;;;;10.90;9.10;;;;;;;11.78;92.45;99975.90;84626;1330;25447;-73
2022/09/11 00:25:39;;;;;;;10.20;8.90;;;;;;;11.78;92.41;99969.65;84663;1329;22692;-72
2022/09/11 00:27:49;;;;;;;11.20;10.00;;;;;;;11.77;92.64;99972.12;84672;1329;25272;-73
2022/09/11 00:29:57;;;;;;;15.30;10.10;;;;;;;11.77;92.45;99966.02;84691;1329;22675;-71
2022/09/11 00:32:06;;;;;;;14.00;10.50;;;;;;;11.75;92.47;99962.41;84672;1332;22658;-72
2022/09/11 00:34:16;;;;;;;11.70;10.50;;;;;;;11.75;92.40;99962.42;84670;1330;24048;-70
2022/09/11 00:36:28;;;;;;;11.70;10.20;;;;;;;11.75;92.48;99963.45;84659;1328;24238;-70
2022/09/11 00:38:38;;;;;;;10.90;9.70;;;;;;;11.75;92.62;99958.91;84685;1330;22740;-75
2022/09/11 00:40:50;;;;;;;12.10;10.80;;;;;;;11.76;92.93;99956.41;84671;1329;22797;-75
2022/09/11 00:42:59;;;;;;;11.20;10.10;;;;;;;11.78;92.83;99953.02;84620;1329;22729;-75
2022/09/11 00:45:16;;;;;;;11.00;9.50;;;;;;;11.80;92.95;99954.84;84689;1321;22577;-73
2022/09/11 00:47:25;;;;;;;11.50;10.00;;;;;;;11.79;92.88;99952.95;84664;1328;22589;-75
2022/09/11 00:49:37;;;;;;;14.00;10.60;;;;;;;11.80;93.06;99948.52;84599;1329;24180;-74
2022/09/11 00:51:47;;;;;;;12.70;11.40;;;;;;;11.84;93.33;99949.45;84723;1329;22603;-77
2022/09/11 00:53:56;;;;;;;13.60;11.00;;;;;;;11.85;93.17;99949.19;84698;1329;22579;-73
2022/09/11 00:56:08;;;;;;;14.10;11.20;;;;;;;11.84;92.90;99946.77;84692;1329;22597;-74
2022/09/11 00:58:21;;;;;;;12.60;11.10;;;;;;;11.84;92.72;99943.67;84691;1328;24654;-71
2022/09/11 01:00:30;;;;;;;15.90;12.50;;;;;;;11.81;92.58;99944.47;84707;1329;22638;-74
2022/09/11 01:02:41;;;;;;;13.00;11.50;;;;;;;11.80;92.66;99944.50;84556;1331;22584;-72
2022/09/11 01:04:50;;;;;;;15.40;11.50;;;;;;;11.81;92.82;99943.96;84696;1330;22607;-72
2022/09/11 01:07:00;;;;;;;17.60;13.50;;;;;;;11.81;93.02;99943.95;84708;1330;22589;-72
2022/09/11 01:09:09;;;;;;;16.00;13.10;;;;;;;11.81;93.04;99943.26;84568;1331;22572;-72
2022/09/11 01:11:30;;;;;;;18.90;14.00;;;;;;;11.81;93.03;99942.02;84661;1330;24293;-73
2022/09/11 01:13:41;;;;;;;16.50;13.20;;;;;;;11.79;92.94;99940.36;84693;1332;22881;-73
2022/09/11 01:15:54;;;;;;;14.30;12.80;;;;;;;11.79;93.12;99937.41;84625;1329;25462;-72
2022/09/11 01:18:09;;;;;;;17.90;13.40;;;;;;;11.80;93.11;99937.73;84650;1330;22721;-72
2022/09/11 01:20:35;;;;;;;16.30;13.10;;;;;;;11.79;93.11;99935.48;84691;1329;22585;-69
2022/09/11 01:23:06;;;;;;;16.10;14.10;;;;;;;11.79;93.26;99934.77;84661;1329;24217;-72
2022/09/11 01:25:26;;;;;;;17.00;14.30;;;;;;;11.78;93.12;99934.13;84667;1330;24147;-72
2022/09/11 01:27:42;;;;;;;;;;;;;;;11.76;93.12;99932.33;84688;1329;22804;-72
2022/09/11 01:29:54;;;;;;;30.90;24.00;;;;;;;11.71;93.17;99929.25;84706;1329;22922;-72
2022/09/11 01:32:06;;;;;;;26.20;21.80;;;;;;;11.70;93.25;99926.67;84603;1332;25333;-71
2022/09/11 01:34:19;;;;;;;21.70;16.90;;;;;;;11.70;93.37;99925.30;84686;1330;22605;-72
2022/09/11 01:36:33;;;;;;;18.00;15.00;;;;;;;11.69;93.34;99925.15;84672;1329;23965;-72
2022/09/11 01:38:45;;;;;;;18.50;14.40;;;;;;;11.69;93.48;99922.70;84728;1329;24074;-77
2022/09/11 01:40:57;;;;;;;18.00;14.60;;;;;;;11.69;93.43;99922.90;84701;1328;22641;-75
2022/09/11 01:43:09;;;;;;;16.30;14.20;;;;;;;11.69;93.50;99923.09;84619;1333;22621;-78
2022/09/11 01:45:17;;;;;;;19.00;15.00;;;;;;;11.68;93.42;99925.19;84741;1327;23048;-74
2022/09/11 01:47:26;;;;;;;16.60;14.00;;;;;;;11.67;93.52;99922.80;84703;1329;22614;-74
2022/09/11 01:49:38;;;;;;;17.90;14.50;;;;;;;11.66;93.40;99920.95;84678;1329;22761;-74
2022/09/11 01:51:47;;;;;;;21.50;15.10;;;;;;;11.64;93.43;99921.39;84677;1326;23859;-72
2022/09/11 01:53:58;;;;;;;17.90;13.50;;;;;;;11.62;93.47;99919.23;84702;1330;22587;-75
2022/09/11 01:56:10;;;;;;;18.30;15.50;;;;;;;11.59;93.42;99919.19;84653;1330;22606;-74
2022/09/11 01:58:21;;;;;;;19.50;14.60;;;;;;;11.60;93.73;99919.83;84669;1330;22612;-74
2022/09/11 02:00:29;;;;;;;19.40;15.20;;;;;;;11.60;93.79;99918.23;84677;1330;22621;-72
2022/09/11 02:02:40;;;;;;;22.00;16.20;;;;;;;11.61;93.72;99915.06;84679;1332;22822;-72
2022/09/11 02:04:54;;;;;;;18.70;15.60;;;;;;;11.59;93.76;99914.27;84673;1329;22593;-71
2022/09/11 02:07:04;;;;;;;18.20;15.50;;;;;;;11.60;93.86;99919.48;84672;1329;22576;-71
2022/09/11 02:09:15;;;;;;;21.80;15.00;;;;;;;11.62;94.12;99911.69;84670;1328;23931;-75
2022/09/11 02:11:24;;;;;;;16.90;14.50;;;;;;;11.64;94.17;99917.52;84675;1330;22582;-75
2022/09/11 02:13:37;;;;;;;18.60;16.00;;;;;;;11.64;94.01;99914.90;84586;1332;26584;-73
2022/09/11 02:15:48;;;;;;;18.70;15.10;;;;;;;11.63;93.97;99915.49;84708;1330;22702;-76
2022/09/11 02:18:02;;;;;;;18.50;15.50;;;;;;;11.64;93.96;99913.69;84706;1330;22592;-77
2022/09/11 02:20:11;;;;;;;17.80;15.10;;;;;;;11.66;94.08;99916.77;84580;1331;22633;-75
2022/09/11 02:22:20;;;;;;;18.00;14.70;;;;;;;11.64;94.11;99915.79;84579;1325;22809;-73
2022/09/11 02:24:29;;;;;;;22.60;16.80;;;;;;;11.66;94.23;99919.73;84730;1332;22944;-73
2022/09/11 02:26:44;;;;;;;21.40;16.10;;;;;;;11.67;94.24;99919.00;84713;1329;22754;-73
2022/09/11 02:28:53;;;;;;;19.50;16.60;;;;;;;11.65;94.14;99918.02;84701;1329;22665;-77
2022/09/11 02:31:02;;;;;;;18.90;16.40;;;;;;;11.64;94.02;99914.41;84720;1329;22711;-75
2022/09/11 02:33:34;;;;;;;19.70;15.80;;;;;;;11.63;94.00;99914.09;84691;1332;23936;-76
2022/09/11 02:35:46;;;;;;;17.50;15.60;;;;;;;11.62;94.09;99913.09;84677;1330;22602;-71
2022/09/11 02:37:58;;;;;;;17.50;15.70;;;;;;;11.63;94.17;99911.84;84573;1330;22620;-71
2022/09/11 02:40:31;;;;;;;22.00;17.00;;;;;;;11.62;93.98;99910.96;84665;1330;22898;-73
2022/09/11 02:42:51;;;;;;;18.50;15.30;;;;;;;11.62;94.28;99906.81;84675;1329;24283;-72
2022/09/11 02:45:08;;;;;;;20.90;16.10;;;;;;;11.62;94.13;99906.11;84676;1329;22780;-74
2022/09/11 02:47:23;;;;;;;21.40;15.80;;;;;;;11.61;94.08;99905.46;84666;1329;25300;-74
2022/09/11 02:49:43;;;;;;;19.50;15.80;;;;;;;11.62;94.22;99905.93;84657;1329;22589;-72
2022/09/11 02:51:55;;;;;;;20.40;16.10;;;;;;;11.63;94.29;99904.51;84622;1330;25319;-75
2022/09/11 02:54:12;;;;;;;17.60;14.80;;;;;;;11.61;94.09;99903.17;84583;1333;22613;-77
2022/09/11 02:56:24;;;;;;;18.20;14.70;;;;;;;11.62;94.40;99903.33;84691;1328;22582;-77
2022/09/11 02:58:35;;;;;;;24.00;15.70;;;;;;;11.62;94.34;99902.77;84708;1330;22738;-76
2022/09/11 03:00:46;;;;;;;22.00;16.60;;;;;;;11.61;94.13;99903.71;84679;1329;25554;-72
2022/09/11 03:02:55;;;;;;;18.50;15.30;;;;;;;11.59;94.14;99902.39;84675;1329;22602;-73
2022/09/11 03:05:04;;;;;;;18.40;15.40;;;;;;;11.56;94.17;99900.64;84735;1327;22649;-75
2022/09/11 03:07:13;;;;;;;17.00;15.30;;;;;;;11.53;94.36;99898.89;84699;1324;24235;-75
2022/09/11 03:09:22;;;;;;;18.20;15.50;;;;;;;11.51;94.39;99898.98;84702;1330;22704;-72
2022/09/11 03:11:31;;;;;;;16.50;14.50;;;;;;;11.49;94.43;99896.78;84695;1329;22607;-72
2022/09/11 03:13:39;;;;;;;16.40;13.20;;;;;;;11.49;94.65;99893.81;84729;1329;23999;-72
2022/09/11 03:15:48;;;;;;;17.40;14.40;;;;;;;11.50;94.53;99888.04;84703;1329;22596;-71
2022/09/11 03:17:57;;;;;;;16.40;14.00;;;;;;;11.50;94.54;99890.48;84667;1325;22688;-72
2022/09/11 03:20:08;;;;;;;14.70;12.30;;;;;;;11.50;94.59;99888.35;84589;1333;22695;-72
2022/09/11 03:22:17;;;;;;;17.30;14.40;;;;;;;11.48;94.46;99888.97;84705;1332;22609;-75
2022/09/11 03:24:26;;;;;;;13.50;11.90;;;;;;;11.47;94.42;99892.54;84692;1329;22636;-72
2022/09/11 03:26:35;;;;;;;15.90;13.40;;;;;;;11.46;94.73;99891.89;84698;1330;23198;-71
2022/09/11 03:28:45;;;;;;;14.30;11.60;;;;;;;11.44;94.41;99887.63;84722;1330;22588;-72
2022/09/11 03:30:56;;;;;;;15.70;12.10;;;;;;;11.44;94.68;99887.78;84668;1329;24307;-72
2022/09/11 03:33:05;;;;;;;14.30;12.10;;;;;;;11.46;94.63;99887.89;84671;1328;22621;-71
2022/09/11 03:35:15;;;;;;;15.70;12.30;;;;;;;11.46;94.87;99886.66;84709;1325;24362;-74
2022/09/11 03:37:25;;;;;;;15.90;12.50;;;;;;;11.47;95.04;99885.20;84539;1331;22609;-76
2022/09/11 03:39:34;;;;;;;17.10;11.80;;;;;;;11.47;94.86;99882.08;84717;1330;22623;-76
2022/09/11 03:41:43;;;;;;;15.30;12.50;;;;;;;11.47;94.85;99885.38;84674;1329;24249;-76
2022/09/11 03:43:52;;;;;;;14.40;12.30;;;;;;;11.47;94.87;99886.05;84657;1330;24525;-73
2022/09/11 03:46:01;;;;;;;14.90;11.10;;;;;;;11.45;94.61;99884.39;84555;1333;22976;-75
2022/09/11 03:48:12;;;;;;;16.70;11.70;;;;;;;11.45;94.86;99883.02;84693;1330;22616;-74
2022/09/11 03:50:21;;;;;;;13.30;11.70;;;;;;;11.46;94.99;99883.67;84553;1333;22589;-76
2022/09/11 03:52:30;;;;;;;13.90;10.80;;;;;;;11.47;94.91;99886.43;84692;1326;22598;-77
2022/09/11 03:54:39;;;;;;;13.70;12.20;;;;;;;11.47;94.94;99881.50;84717;1330;25993;-74
2022/09/11 03:56:48;;;;;;;15.70;11.40;;;;;;;11.47;94.89;99883.98;84728;1329;24041;-76
2022/09/11 03:59:00;;;;;;;14.90;11.60;;;;;;;11.47;94.72;99886.42;84743;1327;22611;-75
2022/09/11 04:01:13;;;;;;;13.90;11.10;;;;;;;11.48;94.88;99884.46;84571;1333;25475;-74
2022/09/11 04:03:22;;;;;;;12.80;10.50;;;;;;;11.48;94.94;99882.54;84607;1330;22577;-75
2022/09/11 04:05:31;;;;;;;13.90;11.30;;;;;;;11.46;94.63;99887.19;84661;1330;25357;-76
2022/09/11 04:07:40;;;;;;;15.90;11.10;;;;;;;11.44;94.73;99882.56;84670;1330;22607;-74
2022/09/11 04:09:51;;;;;;;13.90;11.10;;;;;;;11.44;94.70;99882.70;84697;1330;22768;-76
2022/09/11 04:12:00;;;;;;;16.00;11.30;;;;;;;11.45;94.68;99883.73;84671;1330;22840;-77
2022/09/11 04:14:12;;;;;;;12.70;11.00;;;;;;;11.45;94.87;99884.24;84709;1329;25452;-74
2022/09/11 04:16:24;;;;;;;13.80;11.20;;;;;;;11.44;94.76;99882.39;84677;1330;22646;-72
2022/09/11 04:18:34;;;;;;;13.40;10.80;;;;;;;11.42;94.86;99881.59;84692;1332;22599;-74
2022/09/11 04:20:44;;;;;;;13.10;11.00;;;;;;;11.40;94.60;99879.95;84696;1332;24367;-74
2022/09/11 04:22:53;;;;;;;16.20;11.50;;;;;;;11.40;94.70;99882.91;84569;1332;22597;-73
2022/09/11 04:25:02;;;;;;;12.30;10.90;;;;;;;11.42;94.97;99882.48;84747;1332;22612;-75
2022/09/11 04:27:11;;;;;;;12.60;10.80;;;;;;;11.43;94.84;99881.39;84717;1329;22612;-75
2022/09/11 04:29:21;;;;;;;14.40;10.20;;;;;;;11.44;95.11;99882.90;84607;1334;24234;-72
2022/09/11 04:31:30;;;;;;;13.80;10.30;;;;;;;11.45;94.80;99879.70;84736;1329;25429;-74
2022/09/11 04:33:39;;;;;;;11.40;10.10;;;;;;;11.45;94.90;99883.54;84712;1330;22589;-74
2022/09/11 04:35:48;;;;;;;11.80;10.40;;;;;;;11.46;95.02;99881.21;84742;1325;22699;-74
2022/09/11 04:37:57;;;;;;;12.90;10.70;;;;;;;11.46;94.89;99879.66;84590;1333;25550;-75
2022/09/11 04:40:08;;;;;;;11.80;10.60;;;;;;;11.46;95.05;99879.63;84624;1333;26083;-74
2022/09/11 04:42:17;;;;;;;12.30;10.50;;;;;;;11.49;95.25;99879.70;84705;1332;22612;-75
2022/09/11 04:44:26;;;;;;;12.50;10.60;;;;;;;11.50;95.07;99877.02;84716;1332;22726;-74
2022/09/11 04:46:35;;;;;;;12.80;9.60;;;;;;;11.51;95.02;99877.68;84664;1331;22917;-74
2022/09/11 04:48:48;;;;;;;12.90;9.90;;;;;;;11.50;94.91;99874.04;84690;1330;22594;-75
2022/09/11 04:51:04;;;;;;;11.10;9.20;;;;;;;11.50;94.91;99870.70;84671;1330;22671;-73
2022/09/11 04:53:14;;;;;;;11.90;9.80;;;;;;;11.49;94.79;99872.52;84717;1330;22626;-75
2022/09/11 04:55:27;;;;;;;11.80;9.80;;;;;;;11.49;94.81;99867.83;84662;1329;22628;-76
2022/09/11 04:57:36;;;;;;;12.50;10.20;;;;;;;11.49;94.72;99870.29;84664;1329;25548;-76
2022/09/11 04:59:46;;;;;;;11.10;9.70;;;;;;;11.49;94.89;99870.42;84583;1330;22744;-76
2022/09/11 05:01:56;;;;;;;11.40;10.20;;;;;;;11.50;94.92;99868.62;84683;1329;24039;-75
2022/09/11 05:04:05;;;;;;;14.20;10.10;;;;;;;11.51;95.05;99867.52;84694;1329;23953;-73
2022/09/11 05:06:15;;;;;;;10.80;9.40;;;;;;;11.52;95.05;99864.84;84712;1329;22625;-73
2022/09/11 05:08:26;;;;;;;11.90;9.10;;;;;;;11.53;95.00;99862.56;84701;1330;22668;-72
2022/09/11 05:10:38;;;;;;;11.80;9.30;;;;;;;11.52;94.79;99862.94;84707;1329;24124;-75
2022/09/11 05:12:47;;;;;;;11.80;9.50;;;;;;;11.51;94.85;99863.16;84720;1332;24294;-75
2022/09/11 05:14:56;;;;;;;10.70;9.60;;;;;;;11.53;94.84;99864.15;84735;1330;22590;-74
2022/09/11 05:17:05;;;;;;;12.20;8.60;;;;;;;11.53;94.95;99862.89;84704;1330;22617;-75
2022/09/11 05:19:13;;;;;;;10.00;9.00;;;;;;;11.54;95.01;99858.33;84739;1332;22652;-75
2022/09/11 05:21:23;;;;;;;9.40;8.50;;;;;;;11.52;94.86;99858.21;84718;1329;22724;-75
2022/09/11 05:23:33;;;;;;;9.40;8.00;;;;;;;11.51;94.89;99856.52;84597;1330;22581;-76
2022/09/11 05:25:42;;;;;;;8.90;8.00;;;;;;;11.51;94.96;99857.94;84695;1330;22610;-77
2022/09/11 05:27:51;;;;;;;9.30;8.20;;;;;;;11.51;95.13;99857.37;84241;1330;654830;-77
2022/09/11 05:30:00;;;;;;;8.70;7.80;;;;;;;11.51;94.99;99855.12;84699;1330;22684;-75
2022/09/11 05:32:09;;;;;;;9.80;8.70;;;;;;;11.52;95.05;99861.71;84663;1332;25348;-75
2022/09/11 05:34:21;;;;;;;11.20;8.40;;;;;;;11.53;95.29;99857.83;84607;1333;23819;-75
2022/09/11 05:36:30;;;;;;;9.90;8.00;;;;;;;11.52;94.92;99861.55;84586;1330;22615;-73
2022/09/11 05:38:42;;;;;;;8.30;7.40;;;;;;;11.50;94.95;99858.52;84569;1332;22606;-76
2022/09/11 05:40:52;;;;;;;8.50;7.30;;;;;;;11.49;94.91;99865.02;84608;1330;22617;-76
2022/09/11 05:43:01;;;;;;;8.50;7.60;;;;;;;11.48;95.00;99863.50;84532;1327;22861;-76
2022/09/11 05:45:11;;;;;;;6.80;6.20;;;;;;;11.46;94.83;99863.06;84605;1333;26126;-77
2022/09/11 05:47:19;;;;;;;7.40;6.70;;;;;;;11.43;94.66;99863.40;84716;1329;26061;-77
2022/09/11 05:49:28;;;;;;;7.20;6.20;;;;;;;11.43;94.90;99861.49;84688;1329;22772;-77
2022/09/11 05:51:39;;;;;;;7.50;6.90;;;;;;;11.40;94.71;99861.79;84697;1331;24126;-77
2022/09/11 05:53:49;;;;;;;8.00;7.20;;;;;;;11.42;94.96;99860.48;84731;1329;22587;-77
2022/09/11 05:55:59;;;;;;;7.20;6.50;;;;;;;11.45;95.22;99864.16;84692;1332;23964;-77
2022/09/11 05:58:08;;;;;;;7.70;6.40;;;;;;;11.48;95.12;99862.64;84692;1332;24372;-77
2022/09/11 06:00:19;;;;;;;8.00;7.30;;;;;;;11.51;95.19;99862.63;84723;1329;23987;-76
2022/09/11 06:02:28;;;;;;;8.00;6.80;;;;;;;11.55;95.35;99860.18;84724;1328;22806;-75
2022/09/11 06:04:37;;;;;;;6.20;5.60;;;;;;;11.57;95.10;99864.09;84718;1330;22638;-76
2022/09/11 06:06:47;;;;;;;7.50;6.70;;;;;;;11.56;94.79;99863.10;84701;1330;24297;-76
2022/09/11 06:08:55;;;;;;;;;;;;;;;11.55;94.76;99864.71;84722;1331;25240;-75
2022/09/11 06:11:06;;;;;;;7.40;5.80;;;;;;;11.51;94.75;99871.39;84680;1332;26470;-76
2022/09/11 06:13:22;;;;;;;6.60;5.90;;;;;;;11.49;94.65;99873.02;84682;1331;23789;-76
2022/09/11 06:15:31;;;;;;;7.80;6.20;;;;;;;11.46;94.49;99871.98;84573;1335;22620;-77
2022/09/11 06:17:39;;;;;;;8.40;6.20;;;;;;;11.45;94.71;99871.67;84686;1332;23017;-77
2022/09/11 06:19:48;;;;;;;8.30;6.30;;;;;;;11.46;94.79;99868.46;84687;1332;22602;-74
2022/09/11 06:21:58;;;;;;;8.10;6.50;;;;;;;11.48;94.81;99865.78;84670;1332;22590;-76
2022/09/11 06:24:08;;;;;;;7.50;6.40;;;;;;;11.49;95.15;99867.27;84663;1330;24398;-76
2022/09/11 06:26:18;;;;;;;8.40;6.80;;;;;;;11.51;94.97;99865.10;84541;1335;22592;-75
2022/09/11 06:28:27;;;;;;;9.90;5.80;;;;;;;11.55;95.10;99864.20;84711;1332;22841;-75
2022/09/11 06:30:38;;;;;;;6.80;5.90;;;;;;;11.58;95.22;99869.09;84677;1332;22603;-77
2022/09/11 06:32:52;;;;;;;6.40;5.70;;;;;;;11.58;95.05;99869.44;84763;1326;22661;-77
2022/09/11 06:35:03;;;;;;;7.70;6.80;;;;;;;11.61;95.19;99865.78;84596;1333;22753;-76
2022/09/11 06:37:16;;;;;;;8.20;7.20;;;;;;;11.63;94.93;99867.63;84733;1329;22639;-75
2022/09/11 06:39:25;;;;;;;7.70;6.30;;;;;;;11.66;95.23;99866.60;84721;1332;22587;-74
2022/09/11 06:41:34;;;;;;;6.90;6.20;;;;;;;11.70;95.28;99872.19;84720;1332;22725;-74
2022/09/11 06:43:43;;;;;;;7.40;6.70;;;;;;;11.73;95.19;99871.01;84750;1331;23031;-75
2022/09/11 06:45:52;;;;;;;7.30;6.50;;;;;;;11.74;95.03;99867.77;84694;1330;24278;-72
2022/09/11 06:48:01;;;;;;;6.60;5.90;;;;;;;11.76;95.01;99867.65;84710;1330;26476;-74
2022/09/11 06:50:13;;;;;;;8.50;7.10;;;;;;;11.77;94.80;99867.98;84712;1332;22597;-74
2022/09/11 06:52:24;;;;;;;7.00;6.20;;;;;;;11.77;94.81;99871.27;84690;1329;24238;-73
2022/09/11 06:54:33;;;;;;;7.30;6.50;;;;;;;11.79;94.89;99868.40;84707;1332;22584;-76
2022/09/11 06:56:44;;;;;;;7.10;6.30;;;;;;;11.83;95.29;99869.77;84673;1332;22711;-75
2022/09/11 06:59:00;;;;;;;9.30;7.40;;;;;;;11.90;95.43;99867.52;84693;1332;22660;-75
2022/09/11 07:01:12;;;;;;;11.30;6.90;;;;;;;11.96;95.18;99867.05;84678;1330;23013;-75
2022/09/11 07:03:25;;;;;;;8.00;7.10;;;;;;;11.97;94.77;99870.30;84710;1332;22626;-73
2022/09/11 07:05:40;;;;;;;8.30;7.20;;;;;;;11.98;94.58;99869.91;84664;1331;23997;-75
2022/09/11 07:07:49;;;;;;;8.20;6.70;;;;;;;12.00;94.43;99869.98;84650;1331;22723;-76
2022/09/11 07:10:03;;;;;;;9.30;7.20;;;;;;;11.99;94.16;99870.20;84700;1329;22602;-72
2022/09/11 07:12:14;;;;;;;11.30;7.70;;;;;;;11.97;93.76;99870.85;84684;1329;22873;-73
2022/09/11 07:14:23;;;;;;;9.00;7.70;;;;;;;11.94;93.53;99869.08;84712;1331;22660;-76
2022/09/11 07:16:32;;;;;;;8.70;7.50;;;;;;;11.91;93.72;99869.73;84552;1334;22607;-76
2022/09/11 07:18:42;;;;;;;8.40;7.00;;;;;;;11.88;93.50;99866.92;84688;1332;22577;-73
2022/09/11 07:20:51;;;;;;;9.80;7.40;;;;;;;11.86;93.75;99867.18;84577;1331;24482;-72
2022/09/11 07:23:00;;;;;;;8.30;7.30;;;;;;;11.85;93.78;99864.27;84720;1332;25438;-73
2022/09/11 07:25:15;;;;;;;13.10;8.70;;;;;;;11.84;93.67;99863.81;84650;1330;22720;-76
2022/09/11 07:27:24;;;;;;;8.60;7.20;;;;;;;11.82;93.45;99862.33;84726;1332;22707;-76
2022/09/11 07:29:36;;;;;;;8.10;7.20;;;;;;;11.79;93.59;99864.55;84581;1333;22611;-69
2022/09/11 07:31:46;;;;;;;8.30;7.00;;;;;;;11.77;93.64;99864.14;84691;1330;22611;-72
2022/09/11 07:33:55;;;;;;;;;;;;;;;11.78;93.72;99864.62;84705;1332;25519;-75
2022/09/11 07:36:10;;;;;;;9.10;6.70;;;;;;;11.77;94.13;99863.77;84665;1332;23896;-75
2022/09/11 07:38:33;;;;;;;8.30;6.90;;;;;;;11.79;94.07;99860.52;84672;1329;22591;-76
2022/09/11 07:40:44;;;;;;;7.90;7.10;;;;;;;11.83;94.31;99858.95;84664;1324;22616;-75
2022/09/11 07:42:53;;;;;;;13.90;9.00;;;;;;;11.85;93.91;99859.00;84467;1336;22601;-75
2022/09/11 07:45:02;;;;;;;10.40;8.60;;;;;;;11.90;94.27;99861.77;84676;1332;23933;-73
2022/09/11 07:47:11;;;;;;;8.50;7.50;;;;;;;11.91;93.98;99864.30;84669;1328;24063;-73
2022/09/11 07:49:29;;;;;;;8.70;7.50;;;;;;;11.94;94.00;99865.39;84687;1329;22725;-75
2022/09/11 07:51:43;;;;;;;7.40;6.70;;;;;;;11.96;93.94;99865.11;84678;1332;22709;-75
2022/09/11 07:53:53;;;;;;;11.80;8.30;;;;;;;11.95;93.80;99866.91;84690;1329;22954;-74
2022/09/11 07:56:06;;;;;;;10.20;7.80;;;;;;;11.96;93.75;99863.91;84675;1332;25661;-74
2022/09/11 07:58:16;;;;;;;12.50;7.00;;;;;;;11.96;93.60;99864.92;84673;1332;22586;-74
2022/09/11 08:00:26;;;;;;;11.20;8.10;;;;;;;11.97;93.66;99865.56;84716;1332;22610;-76
2022/09/11 08:02:37;;;;;;;9.00;7.20;;;;;;;11.99;93.78;99863.71;84712;1330;22630;-74
2022/09/11 08:04:46;;;;;;;12.70;7.20;;;;;;;11.98;93.47;99861.88;84658;1335;22608;-74
2022/09/11 08:06:55;;;;;;;9.50;7.70;;;;;;;12.00;93.67;99865.94;84741;1330;22589;-75
2022/09/11 08:09:05;;;;;;;14.20;7.80;;;;;;;12.04;93.51;99870.09;84701;1332;22669;-73
2022/09/11 08:11:16;;;;;;;;;;;;;;;12.04;93.31;99864.71;84726;1328;22594;-72
2022/09/11 08:13:25;;;;;;;12.80;8.00;;;;;;;11.99;93.03;99867.02;84729;1332;22930;-71
2022/09/11 08:15:38;;;;;;;8.90;7.70;;;;;;;12.00;93.05;99864.39;84691;1329;22612;-75
2022/09/11 08:17:46;;;;;;;14.70;7.20;;;;;;;12.02;93.24;99861.83;84687;1330;22602;-74
2022/09/11 08:19:55;;;;;;;11.40;8.10;;;;;;;12.06;93.40;99859.33;84679;1329;24262;-72
2022/09/11 08:22:04;;;;;;;12.20;7.60;;;;;;;12.09;93.38;99862.34;84624;1333;22897;-72
2022/09/11 08:24:19;;;;;;;13.70;7.40;;;;;;;12.08;92.73;99860.64;84693;1329;22596;-72
2022/09/11 08:26:30;;;;;;;12.80;7.20;;;;;;;12.08;93.04;99864.12;84653;1332;23883;-73
2022/09/11 08:28:41;;;;;;;9.20;7.10;;;;;;;12.07;92.67;99865.24;84679;1331;23242;-75
2022/09/11 08:30:50;;;;;;;8.20;7.20;;;;;;;12.05;92.60;99866.38;84659;1332;22592;-73
2022/09/11 08:33:01;;;;;;;9.00;7.60;;;;;;;12.02;92.43;99867.06;84645;1332;22578;-73
2022/09/11 08:35:11;;;;;;;8.20;7.40;;;;;;;12.01;92.52;99865.52;84697;1325;23037;-72
2022/09/11 08:37:24;;;;;;;10.70;6.40;;;;;;;12.02;92.53;99867.25;84602;1330;22631;-77
2022/09/11 08:39:32;;;;;;;10.00;7.60;;;;;;;11.99;92.38;99869.67;84740;1332;22672;-76
2022/09/11 08:41:46;;;;;;;10.70;7.30;;;;;;;11.98;92.39;99867.83;84713;1330;25448;-75
2022/09/11 08:43:57;;;;;;;9.20;7.30;;;;;;;12.00;92.84;99867.84;84758;1330;22580;-76
2022/09/11 08:46:08;;;;;;;9.60;7.10;;;;;;;12.00;92.84;99870.48;84641;1333;22894;-76
2022/09/11 08:48:17;;;;;;;10.70;7.70;;;;;;;12.03;93.10;99873.50;84765;1330;22627;-76
2022/09/11 08:50:30;;;;;;;10.70;7.90;;;;;;;12.04;92.80;99869.23;84596;1333;22618;-73
2022/09/11 08:52:39;;;;;;;12.00;8.10;;;;;;;12.03;92.63;99870.01;84732;1330;22589;-76
2022/09/11 08:54:49;;;;;;;12.10;7.90;;;;;;;12.01;92.63;99869.21;84601;1334;23948;-75
2022/09/11 08:57:10;;;;;;;8.60;7.30;;;;;;;11.99;92.53;99876.29;84682;1330;22591;-75
2022/09/11 08:59:27;;;;;;;8.50;6.70;;;;;;;11.95;92.32;99874.94;84711;1331;22645;-75
2022/09/11 09:01:42;;;;;;;12.50;8.30;;;;;;;11.90;92.04;99879.23;84674;1330;25439;-73
2022/09/11 09:04:06;;;;;;;12.60;7.50;;;;;;;11.86;92.42;99879.39;84748;1330;23920;-73
2022/09/11 09:06:40;;;;;;;10.40;7.50;;;;;;;11.85;92.47;99883.33;84585;1333;22593;-74
2022/09/11 09:09:01;;;;;;;10.30;7.80;;;;;;;11.80;92.43;99886.87;84607;1332;22625;-72
2022/09/11 09:11:18;;;;;;;12.00;7.80;;;;;;;11.75;92.35;99889.76;84683;1331;22575;-72
2022/09/11 09:13:44;;;;;;;13.40;7.80;;;;;;;11.71;92.45;99895.55;84724;1332;24235;-75
2022/09/11 09:16:01;;;;;;;8.40;6.80;;;;;;;11.66;92.26;99895.96;84595;1334;22591;-76
2022/09/11 09:18:12;;;;;;;7.70;6.90;;;;;;;11.62;91.94;99897.04;84721;1330;22601;-75
2022/09/11 09:20:26;;;;;;;10.00;6.60;;;;;;;11.59;91.94;99895.92;84755;1332;22669;-74
2022/09/11 09:22:42;;;;;;;7.10;5.80;;;;;;;11.57;91.61;99897.60;84691;1330;22695;-72
2022/09/11 09:24:54;;;;;;;6.70;5.40;;;;;;;11.52;91.23;99901.56;84729;1325;22611;-75
2022/09/11 09:27:04;;;;;;;7.20;6.30;;;;;;;11.50;91.61;99896.75;84574;1332;23954;-74
2022/09/11 09:29:17;;;;;;;6.40;5.70;;;;;;;11.51;91.99;99902.82;84713;1330;22650;-75
2022/09/11 09:31:28;;;;;;;5.80;4.90;;;;;;;11.51;91.89;99903.17;84554;1332;24256;-75
2022/09/11 09:33:39;;;;;;;6.60;4.90;;;;;;;11.48;91.47;99904.21;84606;1331;25353;-74
2022/09/11 09:35:48;;;;;;;6.60;4.10;;;;;;;11.42;90.35;99904.98;84596;1332;22657;-75
2022/09/11 09:37:56;;;;;;;4.70;3.80;;;;;;;11.34;90.21;99902.60;84714;1329;23816;-75
2022/09/11 09:40:09;;;;;;;7.00;4.10;;;;;;;11.26;90.25;99903.33;84726;1332;22612;-75
2022/09/11 09:43:04;;;;;;;4.70;4.10;;;;;;;11.23;90.61;99905.56;84675;1330;22934;-75
2022/09/11 09:45:40;;;;;;;3.70;3.40;;;;;;;11.25;91.55;99904.77;84647;1330;22596;-77
2022/09/11 09:47:49;;;;;;;7.00;3.80;;;;;;;11.29;91.26;99902.66;84555;1333;22607;-76
2022/09/11 09:49:58;;;;;;;6.10;3.20;;;;;;;11.28;90.82;99898.70;84692;1330;22657;-75
2022/09/11 09:52:18;;;;;;;4.60;3.20;;;;;;;11.30;91.17;99899.66;84653;1330;25616;-74
2022/09/11 09:54:29;;;;;;;10.50;6.60;;;;;;;11.34;91.43;99898.38;84706;1331;25508;-74
2022/09/11 09:56:37;;;;;;;9.60;5.60;;;;;;;11.38;91.37;99897.00;84695;1330;22610;-73
2022/09/11 09:58:55;;;;;;;8.10;4.80;;;;;;;11.42;91.36;99896.98;84700;1328;22814;-74
2022/09/11 10:01:04;;;;;;;5.30;4.50;;;;;;;11.50;92.19;99896.40;84694;1331;23981;-73
2022/09/11 10:03:24;;;;;;;6.70;3.70;;;;;;;11.60;92.27;99891.02;84704;1330;25423;-73
2022/09/11 10:05:34;;;;;;;4.30;3.70;;;;;;;11.71;92.52;99890.99;84735;1330;22658;-76
2022/09/11 10:07:50;;;;;;;4.90;4.30;;;;;;;11.80;92.56;99890.19;84705;1330;22591;-76
2022/09/11 10:10:02;;;;;;;4.40;3.70;;;;;;;11.86;91.79;99889.57;84751;1330;22605;-73
2022/09/11 10:12:18;;;;;;;4.30;3.90;;;;;;;11.95;92.31;99885.25;84618;1333;22789;-75